createdAt,value
2023-05-18T00:01:10.255Z,3.67
2023-05-18T00:03:39.571Z,2.63
2023-05-18T00:06:10.480Z,2.50
2023-05-18T00:08:39.768Z,2.63
2023-05-18T00:11:09.404Z,2.87
2023-05-18T00:13:38.540Z,2.67
2023-05-18T00:16:10.877Z,3.30
2023-05-18T00:18:44.783Z,3.00
2023-05-18T00:23:50.664Z,2.80
2023-05-18T00:26:20.471Z,3.60
2023-05-18T00:28:56.265Z,3.03
2023-05-18T00:31:28.523Z,3.03
2023-05-18T00:34:00.533Z,3.20
2023-05-18T00:36:32.972Z,3.23
2023-05-18T00:39:05.402Z,2.40
2023-05-18T00:41:35.014Z,3.10
2023-05-18T00:44:04.468Z,2.53
2023-05-18T00:46:33.399Z,2.20
2023-05-18T00:49:04.317Z,2.70
2023-05-18T00:51:35.980Z,3.13
2023-05-18T00:54:12.367Z,3.13
2023-05-18T00:56:46.173Z,3.10
2023-05-18T00:59:18.152Z,2.77
2023-05-18T01:01:48.186Z,3.33
2023-05-18T01:04:24.089Z,2.57
2023-05-18T01:07:06.222Z,2.63
2023-05-18T01:09:35.577Z,3.30
2023-05-18T01:12:12.909Z,2.57
2023-05-18T01:14:49.983Z,2.50
2023-05-18T01:17:34.796Z,2.67
2023-05-18T01:20:33.605Z,2.63
2023-05-18T01:23:29.396Z,2.53
2023-05-18T01:26:16.123Z,2.63
2023-05-18T01:28:52.563Z,3.13
2023-05-18T01:31:28.398Z,2.97
2023-05-18T01:33:58.488Z,2.60
2023-05-18T01:36:31.781Z,3.10
2023-05-18T01:39:03.948Z,2.70
2023-05-18T01:41:38.707Z,2.77
2023-05-18T01:44:19.263Z,2.33
2023-05-18T01:47:06.652Z,2.57
2023-05-18T01:49:43.888Z,2.80
2023-05-18T01:52:18.884Z,3.23
2023-05-18T01:54:54.201Z,2.60
2023-05-18T01:57:29.739Z,3.07
2023-05-18T02:00:00.671Z,2.53
2023-05-18T02:02:38.439Z,2.23
2023-05-18T02:05:11.781Z,2.60
2023-05-18T02:07:43.544Z,2.67
2023-05-18T02:10:14.934Z,2.50
2023-05-18T02:12:48.540Z,2.27
2023-05-18T02:15:19.335Z,2.60
2023-05-18T02:17:50.891Z,2.90
2023-05-18T02:20:20.473Z,2.93
2023-05-18T02:22:49.538Z,2.57
2023-05-18T02:25:19.870Z,3.07
2023-05-18T02:27:53.549Z,2.80
2023-05-18T02:30:24.759Z,2.80
2023-05-18T02:32:53.574Z,2.40
2023-05-18T02:35:23.005Z,2.45
2023-05-18T02:37:53.563Z,2.67
2023-05-18T02:40:23.119Z,2.67
2023-05-18T02:42:52.130Z,2.57
2023-05-18T02:45:21.627Z,2.83
2023-05-18T02:47:50.759Z,2.33
2023-05-18T02:50:20.144Z,3.20
2023-05-18T02:52:50.803Z,2.93
2023-05-18T02:55:19.881Z,3.43
2023-05-18T02:58:07.396Z,3.80
2023-05-18T03:01:03.086Z,2.37
2023-05-18T03:03:37.000Z,3.17
2023-05-18T03:06:08.551Z,3.53
2023-05-18T03:08:40.844Z,2.50
2023-05-18T03:11:12.971Z,3.22
2023-05-18T03:13:43.137Z,2.60
2023-05-18T03:16:15.065Z,2.63
2023-05-18T03:18:44.440Z,3.03
2023-05-18T03:21:16.997Z,2.57
2023-05-18T03:23:46.375Z,3.27
2023-05-18T03:26:16.277Z,3.07
2023-05-18T03:28:45.470Z,3.47
2023-05-18T03:31:14.587Z,3.10
2023-05-18T03:33:43.798Z,3.63
2023-05-18T03:36:22.323Z,3.03
2023-05-18T03:38:55.732Z,3.45
2023-05-18T03:41:29.544Z,3.33
2023-05-18T03:44:00.514Z,2.83
2023-05-18T03:46:31.548Z,2.80
2023-05-18T03:49:02.761Z,2.70
2023-05-18T03:51:38.300Z,3.20
2023-05-18T03:54:10.664Z,3.40
2023-05-18T03:56:44.534Z,3.47
2023-05-18T03:59:13.733Z,3.00
2023-05-18T04:01:43.863Z,3.50
2023-05-18T04:04:17.870Z,3.25
2023-05-18T04:09:17.989Z,3.17
2023-05-18T04:11:46.960Z,2.87
2023-05-18T04:14:16.716Z,3.43
2023-05-18T04:16:46.273Z,2.80
2023-05-18T04:19:16.983Z,2.77
2023-05-18T04:21:46.846Z,2.87
2023-05-18T04:24:16.053Z,2.80
2023-05-18T04:26:46.091Z,3.13
2023-05-18T04:29:18.313Z,3.50
2023-05-18T04:31:49.667Z,3.00
2023-05-18T04:34:18.761Z,3.10
2023-05-18T04:36:48.424Z,2.80
2023-05-18T04:39:18.880Z,3.00
2023-05-18T04:41:57.655Z,2.80
2023-05-18T04:44:30.794Z,3.20
2023-05-18T04:47:03.975Z,3.33
2023-05-18T04:49:38.099Z,2.83
2023-05-18T04:52:11.845Z,3.23
2023-05-18T04:54:41.071Z,2.98
2023-05-18T04:57:11.534Z,3.03
2023-05-18T04:59:44.593Z,3.23
2023-05-18T05:02:14.706Z,2.57
2023-05-18T05:04:44.422Z,3.63
2023-05-18T05:07:13.885Z,2.97
2023-05-18T05:09:46.717Z,4.00
2023-05-18T05:12:15.604Z,3.30
2023-05-18T05:14:45.846Z,2.70
2023-05-18T05:17:28.589Z,2.50
2023-05-18T05:19:57.910Z,3.00
2023-05-18T05:22:27.030Z,3.77
2023-05-18T05:24:59.997Z,3.20
2023-05-18T05:27:40.147Z,3.57
2023-05-18T05:30:18.488Z,3.10
2023-05-18T05:32:50.272Z,3.47
2023-05-18T05:35:34.883Z,2.97
2023-05-18T05:38:05.350Z,2.57
2023-05-18T05:40:37.845Z,3.10
2023-05-18T05:43:07.608Z,2.70
2023-05-18T05:45:43.214Z,3.40
2023-05-18T05:48:15.522Z,2.47
2023-05-18T05:50:45.652Z,3.45
2023-05-18T05:53:17.401Z,2.70
2023-05-18T05:55:47.131Z,3.00
2023-05-18T05:58:20.787Z,3.03
2023-05-18T06:00:53.547Z,3.17
2023-05-18T06:03:23.092Z,2.93
2023-05-18T06:05:52.454Z,2.80
2023-05-18T06:08:24.695Z,2.60
2023-05-18T06:10:55.330Z,2.60
2023-05-18T06:13:24.281Z,2.80
2023-05-18T06:15:59.928Z,2.70
2023-05-18T06:18:31.904Z,2.63
2023-05-18T06:21:05.372Z,3.27
2023-05-18T06:23:39.459Z,2.57
2023-05-18T06:26:28.782Z,2.60
2023-05-18T06:29:27.466Z,2.50
2023-05-18T06:32:10.087Z,2.33
2023-05-18T06:34:45.406Z,2.77
2023-05-18T06:37:14.995Z,2.60
2023-05-18T06:39:47.292Z,2.13
2023-05-18T06:42:16.537Z,2.33
2023-05-18T06:44:56.059Z,1.83
2023-05-18T06:47:48.134Z,1.90
2023-05-18T06:50:17.601Z,2.30
2023-05-18T06:52:51.085Z,2.03
2023-05-18T06:55:20.541Z,1.70
2023-05-18T06:57:52.917Z,1.73
2023-05-18T07:00:26.838Z,1.70
2023-05-18T07:02:57.590Z,1.53
2023-05-18T07:05:36.891Z,1.43
2023-05-18T07:08:07.680Z,1.70
2023-05-18T07:10:36.995Z,1.57
2023-05-18T07:13:08.551Z,1.90
2023-05-18T07:15:39.191Z,1.70
2023-05-18T07:18:08.152Z,2.07
2023-05-18T07:20:37.691Z,1.60
2023-05-18T07:23:08.489Z,1.63
2023-05-18T07:25:38.011Z,1.77
2023-05-18T07:28:09.049Z,1.67
2023-05-18T07:30:38.402Z,1.50
2023-05-18T07:33:19.297Z,1.77
2023-05-18T07:35:48.221Z,1.43
2023-05-18T07:38:19.573Z,1.77
2023-05-18T07:40:48.685Z,1.15
2023-05-18T07:43:17.576Z,1.67
2023-05-18T07:45:46.656Z,1.67
2023-05-18T07:48:15.811Z,1.83
2023-05-18T07:50:44.851Z,1.63
2023-05-18T07:53:16.275Z,1.57
2023-05-18T07:55:45.759Z,1.50
2023-05-18T07:58:16.657Z,1.43
2023-05-18T08:00:45.834Z,1.13
2023-05-18T08:03:15.782Z,1.30
2023-05-18T08:05:45.934Z,1.23
2023-05-18T08:08:17.695Z,1.30
2023-05-18T08:10:47.236Z,1.50
2023-05-18T08:13:17.354Z,1.00
2023-05-18T08:15:51.055Z,1.77
2023-05-18T08:18:28.454Z,1.13
2023-05-18T08:20:57.761Z,1.17
2023-05-18T08:23:26.656Z,1.13
2023-05-18T08:25:59.654Z,2.00
2023-05-18T08:28:28.579Z,1.53
2023-05-18T08:30:57.873Z,1.53
2023-05-18T08:33:26.820Z,2.03
2023-05-18T08:35:56.245Z,1.80
2023-05-18T08:38:25.072Z,1.57
2023-05-18T08:41:06.641Z,1.20
2023-05-18T08:43:41.833Z,1.40
2023-05-18T08:46:20.159Z,1.77
2023-05-18T08:48:51.953Z,1.13
2023-05-18T08:51:22.033Z,1.20
2023-05-18T08:53:54.028Z,1.60
2023-05-18T08:56:25.935Z,1.23
2023-05-18T08:59:00.274Z,1.27
2023-05-18T09:01:30.850Z,2.00
2023-05-18T09:04:00.219Z,1.50
2023-05-18T09:06:29.623Z,1.40
2023-05-18T09:08:58.824Z,1.50
2023-05-18T09:11:28.481Z,1.40
2023-05-18T09:13:58.596Z,1.30
2023-05-18T09:16:28.804Z,1.20
2023-05-18T09:18:58.352Z,1.83
2023-05-18T09:21:32.230Z,1.30
2023-05-18T09:26:30.453Z,1.20
2023-05-18T09:28:59.686Z,1.60
2023-05-18T09:31:31.723Z,1.35
2023-05-18T09:34:01.340Z,1.80
2023-05-18T09:36:33.958Z,1.67
2023-05-18T09:39:09.732Z,1.43
2023-05-18T09:41:40.850Z,1.47
2023-05-18T09:44:13.102Z,1.37
2023-05-18T09:46:44.012Z,1.30
2023-05-18T09:49:21.249Z,1.53
2023-05-18T09:51:50.614Z,1.37
2023-05-18T09:54:24.229Z,1.47
2023-05-18T09:57:09.033Z,1.47
2023-05-18T09:59:40.900Z,1.73
2023-05-18T10:02:15.722Z,1.30
2023-05-18T10:04:45.236Z,1.80
2023-05-18T10:07:18.230Z,1.20
2023-05-18T10:09:47.259Z,1.73
2023-05-18T10:12:18.114Z,1.63
2023-05-18T10:14:49.204Z,1.23
2023-05-18T10:17:18.958Z,1.30
2023-05-18T10:19:51.837Z,1.43
2023-05-18T10:22:23.136Z,1.43
2023-05-18T10:24:52.757Z,1.53
2023-05-18T10:27:27.765Z,1.73
2023-05-18T10:29:59.321Z,1.30
2023-05-18T10:32:30.966Z,1.50
2023-05-18T10:35:01.581Z,1.13
2023-05-18T10:37:33.784Z,1.50
2023-05-18T10:40:04.139Z,1.77
2023-05-18T10:42:33.627Z,1.90
2023-05-18T10:45:06.347Z,1.50
2023-05-18T10:47:39.408Z,1.27
2023-05-18T10:50:11.651Z,1.20
2023-05-18T10:52:42.966Z,1.72
2023-05-18T10:55:17.828Z,1.60
2023-05-18T10:57:56.745Z,1.40
2023-05-18T11:00:31.068Z,1.40
2023-05-18T11:03:07.951Z,1.30
2023-05-18T11:05:39.324Z,1.30
2023-05-18T11:08:08.715Z,1.10
2023-05-18T11:10:41.909Z,1.10
2023-05-18T11:13:14.798Z,1.55
2023-05-18T11:16:06.764Z,1.53
2023-05-18T11:18:38.362Z,1.23
2023-05-18T11:21:34.458Z,1.20
2023-05-18T11:24:19.846Z,1.13
2023-05-18T11:26:50.685Z,1.20
2023-05-18T11:29:22.290Z,1.10
2023-05-18T11:31:53.505Z,1.00
2023-05-18T11:34:52.739Z,1.20
2023-05-18T11:37:48.837Z,1.43
2023-05-18T11:40:47.131Z,1.10
2023-05-18T11:43:27.354Z,0.97
2023-05-18T11:46:00.866Z,1.00
2023-05-18T11:48:31.784Z,1.13
2023-05-18T11:51:09.032Z,1.10
2023-05-18T11:53:38.547Z,1.00
2023-05-18T11:56:18.026Z,0.80
2023-05-18T11:59:07.402Z,1.17
2023-05-18T12:01:41.521Z,0.90
2023-05-18T12:04:11.619Z,0.73
2023-05-18T12:06:44.546Z,0.80
2023-05-18T12:09:34.892Z,0.80
2023-05-18T12:12:13.540Z,0.90
2023-05-18T12:14:53.485Z,1.40
2023-05-18T12:17:23.905Z,1.00
2023-05-18T12:19:52.908Z,1.27
2023-05-18T12:22:22.121Z,1.07
2023-05-18T12:24:52.878Z,1.03
2023-05-18T12:27:22.806Z,1.57
2023-05-18T12:29:52.953Z,0.80
2023-05-18T12:32:25.726Z,1.03
2023-05-18T12:34:54.866Z,1.20
2023-05-18T12:37:34.121Z,1.10
2023-05-18T12:40:17.832Z,1.77
2023-05-18T12:42:56.545Z,1.07
2023-05-18T12:45:33.344Z,1.20
2023-05-18T12:48:15.647Z,1.20
2023-05-18T12:50:50.244Z,1.27
2023-05-18T12:53:19.752Z,1.15
2023-05-18T12:55:57.995Z,0.70
2023-05-18T12:58:27.377Z,0.90
2023-05-18T13:00:56.402Z,0.80
2023-05-18T13:03:26.238Z,1.07
2023-05-18T13:06:05.552Z,1.17
2023-05-18T13:08:35.772Z,1.20
2023-05-18T13:11:13.513Z,0.77
2023-05-18T13:14:04.502Z,0.87
2023-05-18T13:16:39.116Z,1.00
2023-05-18T13:19:09.632Z,0.80
2023-05-18T13:21:39.150Z,1.20
2023-05-18T13:24:08.669Z,0.70
2023-05-18T13:26:37.774Z,1.00
2023-05-18T13:29:08.062Z,1.13
2023-05-18T13:31:37.427Z,1.00
2023-05-18T13:34:06.342Z,1.17
2023-05-18T13:36:36.586Z,1.80
2023-05-18T13:39:06.763Z,1.30
2023-05-18T13:41:36.276Z,1.60
2023-05-18T13:44:05.613Z,1.20
2023-05-18T13:46:37.025Z,1.13
2023-05-18T13:49:05.946Z,1.07
2023-05-18T13:51:35.116Z,1.20
2023-05-18T13:54:04.408Z,1.00
2023-05-18T13:56:33.304Z,1.10
2023-05-18T13:59:03.167Z,1.07
2023-05-18T14:01:32.481Z,1.10
2023-05-18T14:04:01.832Z,1.30
2023-05-18T14:06:31.330Z,1.20
2023-05-18T14:09:01.702Z,1.50
2023-05-18T14:11:34.089Z,1.10
2023-05-18T14:14:03.267Z,1.30
2023-05-18T14:16:32.443Z,1.10
2023-05-18T14:19:01.666Z,1.30
2023-05-18T14:21:31.238Z,1.10
2023-05-18T14:24:03.513Z,1.07
2023-05-18T14:26:33.692Z,1.60
2023-05-18T14:29:03.740Z,1.30
2023-05-18T14:31:32.903Z,1.43
2023-05-18T14:34:03.575Z,1.10
2023-05-18T14:36:32.737Z,1.20
2023-05-18T14:39:01.918Z,1.20
2023-05-18T14:41:31.044Z,1.33
2023-05-18T14:44:03.171Z,1.37
2023-05-18T14:46:32.329Z,1.10
2023-05-18T14:49:01.524Z,1.33
2023-05-18T14:51:30.784Z,1.20
2023-05-18T14:54:00.073Z,1.10
2023-05-18T14:56:30.230Z,1.20
2023-05-18T14:58:59.223Z,1.37
2023-05-18T15:01:28.550Z,1.00
2023-05-18T15:03:57.719Z,1.50
2023-05-18T15:06:27.761Z,1.60
2023-05-18T15:08:57.320Z,1.20
2023-05-18T15:11:26.663Z,0.90
2023-05-18T15:13:55.774Z,1.50
2023-05-18T15:16:25.402Z,1.00
2023-05-18T15:18:54.587Z,1.00
2023-05-18T15:21:24.216Z,1.17
2023-05-18T15:23:53.201Z,1.00
2023-05-18T15:26:22.521Z,1.13
2023-05-18T15:28:53.777Z,1.20
2023-05-18T15:31:23.176Z,1.10
2023-05-18T15:33:52.572Z,1.20
2023-05-18T15:36:23.739Z,1.30
2023-05-18T15:38:53.399Z,1.07
2023-05-18T15:41:23.431Z,1.13
2023-05-18T15:43:54.435Z,1.33
2023-05-18T15:46:23.981Z,1.07
2023-05-18T15:48:55.961Z,1.40
2023-05-18T15:51:25.632Z,1.40
2023-05-18T15:53:54.633Z,1.70
2023-05-18T15:56:23.809Z,1.00
2023-05-18T15:58:55.492Z,1.50
2023-05-18T16:01:25.847Z,1.33
2023-05-18T16:03:55.968Z,1.73
2023-05-18T16:06:25.376Z,1.03
2023-05-18T16:08:55.740Z,1.60
2023-05-18T16:11:25.567Z,1.30
2023-05-18T16:13:56.796Z,0.83
2023-05-18T16:16:26.476Z,1.50
2023-05-18T16:18:55.466Z,1.37
2023-05-18T16:21:24.429Z,1.40
2023-05-18T16:23:53.312Z,1.30
2023-05-18T16:26:22.415Z,1.00
2023-05-18T16:28:51.790Z,1.37
2023-05-18T16:31:21.368Z,1.37
2023-05-18T16:33:50.091Z,1.30
2023-05-18T16:36:19.094Z,1.30
2023-05-18T16:38:47.900Z,1.07
2023-05-18T16:41:17.192Z,1.40
2023-05-18T16:43:46.060Z,1.20
2023-05-18T16:46:19.438Z,1.20
2023-05-18T16:48:51.389Z,1.57
2023-05-18T16:51:20.782Z,1.40
2023-05-18T16:53:51.705Z,1.40
2023-05-18T16:56:21.743Z,1.27
2023-05-18T16:58:55.718Z,1.40
2023-05-18T17:03:58.690Z,1.37
2023-05-18T17:06:28.260Z,1.40
2023-05-18T17:08:57.434Z,1.57
2023-05-18T17:11:28.357Z,1.57
2023-05-18T17:13:59.505Z,1.10
2023-05-18T17:16:29.530Z,1.53
2023-05-18T17:18:58.593Z,1.60
2023-05-18T17:21:30.546Z,1.60
2023-05-18T17:23:59.788Z,1.57
2023-05-18T17:26:32.491Z,1.83
2023-05-18T17:29:01.312Z,1.63
2023-05-18T17:31:31.065Z,1.43
2023-05-18T17:34:00.159Z,1.40
2023-05-18T17:36:29.367Z,1.43
2023-05-18T17:38:58.420Z,1.50
2023-05-18T17:41:27.877Z,1.30
2023-05-18T17:44:01.695Z,1.53
2023-05-18T17:49:03.474Z,1.63
2023-05-18T17:51:33.104Z,1.50
2023-05-18T17:54:02.468Z,1.43
2023-05-18T17:56:35.203Z,1.50
2023-05-18T17:59:05.012Z,1.67
2023-05-18T18:01:38.052Z,1.80
2023-05-18T18:04:07.123Z,1.37
2023-05-18T18:06:39.606Z,1.50
2023-05-18T18:09:08.666Z,1.43
2023-05-18T18:11:41.551Z,1.60
2023-05-18T18:14:15.813Z,1.83
2023-05-18T18:16:45.710Z,2.00
2023-05-18T18:19:18.683Z,2.27
2023-05-18T18:21:50.959Z,2.07
2023-05-18T18:24:21.803Z,1.90
2023-05-18T18:26:52.645Z,1.50
2023-05-18T18:29:21.956Z,1.77
2023-05-18T18:31:52.056Z,2.43
2023-05-18T18:34:23.651Z,2.20
2023-05-18T18:37:00.848Z,2.33
2023-05-18T18:39:34.510Z,2.30
2023-05-18T18:42:06.954Z,2.47
2023-05-18T18:44:37.728Z,2.37
2023-05-18T18:47:07.745Z,2.53
2023-05-18T18:49:56.109Z,2.70
2023-05-18T18:52:26.181Z,2.40
2023-05-18T18:54:55.799Z,2.17
2023-05-18T18:57:27.653Z,2.20
2023-05-18T18:59:58.578Z,2.60
2023-05-18T19:02:29.018Z,2.67
2023-05-18T19:04:59.114Z,2.30
2023-05-18T19:07:29.063Z,2.50
2023-05-18T19:09:57.951Z,2.40
2023-05-18T19:12:27.082Z,2.43
2023-05-18T19:14:56.044Z,2.17
2023-05-18T19:17:26.324Z,2.33
2023-05-18T19:19:55.351Z,2.33
2023-05-18T19:22:24.316Z,2.33
2023-05-18T19:24:53.211Z,2.37
2023-05-18T19:27:23.402Z,2.13
2023-05-18T19:29:52.698Z,2.13
2023-05-18T19:32:22.745Z,1.80
2023-05-18T19:34:51.822Z,2.17
2023-05-18T19:37:21.299Z,2.30
2023-05-18T19:39:50.491Z,2.00
2023-05-18T19:42:20.111Z,1.80
2023-05-18T19:44:49.132Z,1.60
2023-05-18T19:47:18.276Z,2.30
2023-05-18T19:49:47.422Z,1.97
2023-05-18T19:52:19.481Z,1.77
2023-05-18T19:54:50.533Z,1.73
2023-05-18T19:57:20.989Z,1.90
2023-05-18T19:59:50.274Z,2.20
2023-05-18T20:02:19.356Z,1.57
2023-05-18T20:04:48.602Z,1.90
2023-05-18T20:07:17.860Z,1.63
2023-05-18T20:09:47.061Z,2.10
2023-05-18T20:12:16.263Z,1.93
2023-05-18T20:14:46.635Z,1.93
2023-05-18T20:17:21.227Z,2.30
2023-05-18T20:19:50.554Z,1.80
2023-05-18T20:22:20.412Z,1.70
2023-05-18T20:24:50.683Z,1.80
2023-05-18T20:27:19.784Z,1.90
2023-05-18T20:29:48.610Z,1.90
2023-05-18T20:32:18.094Z,1.80
2023-05-18T20:34:47.275Z,2.10
2023-05-18T20:37:30.858Z,1.90
2023-05-18T20:40:06.806Z,2.20
2023-05-18T20:42:40.902Z,1.80
2023-05-18T20:45:11.756Z,1.90
2023-05-18T20:47:46.831Z,2.13
2023-05-18T20:50:17.327Z,2.30
2023-05-18T20:52:46.920Z,2.30
2023-05-18T20:55:17.949Z,1.80
2023-05-18T20:57:50.361Z,2.53
2023-05-18T21:00:22.906Z,2.10
2023-05-18T21:02:53.984Z,2.40
2023-05-18T21:05:23.202Z,2.13
2023-05-18T21:07:52.974Z,2.40
2023-05-18T21:10:25.970Z,2.73
2023-05-18T21:12:55.547Z,3.07
2023-05-18T21:15:26.848Z,2.40
2023-05-18T21:18:03.245Z,2.20
2023-05-18T21:20:33.352Z,2.27
2023-05-18T21:23:03.913Z,2.20
2023-05-18T21:25:33.918Z,2.20
2023-05-18T21:28:06.524Z,2.00
2023-05-18T21:30:35.312Z,2.30
2023-05-18T21:33:05.534Z,2.17
2023-05-18T21:35:34.863Z,2.10
2023-05-18T21:38:07.066Z,2.40
2023-05-18T21:40:36.067Z,1.93
2023-05-18T21:43:07.148Z,1.90
2023-05-18T21:45:36.013Z,1.77
2023-05-18T21:48:09.760Z,2.07
2023-05-18T21:50:38.746Z,1.98
2023-05-18T21:53:08.211Z,2.50
2023-05-18T21:55:37.237Z,1.97
2023-05-18T21:58:06.951Z,2.10
2023-05-18T22:00:37.675Z,1.97
2023-05-18T22:03:09.622Z,1.90
2023-05-18T22:05:40.895Z,1.80
2023-05-18T22:08:11.186Z,1.93
2023-05-18T22:10:43.223Z,1.97
2023-05-18T22:13:13.479Z,1.97
2023-05-18T22:15:42.299Z,2.10
2023-05-18T22:18:11.478Z,2.50
2023-05-18T22:20:41.313Z,1.80
2023-05-18T22:23:10.955Z,2.20
2023-05-18T22:25:42.165Z,2.13
2023-05-18T22:28:12.361Z,1.93
2023-05-18T22:30:44.251Z,2.33
2023-05-18T22:33:14.049Z,1.93
2023-05-18T22:35:43.040Z,2.37
2023-05-18T22:38:14.021Z,2.03
2023-05-18T22:40:43.779Z,2.77
2023-05-18T22:43:14.729Z,2.10
2023-05-18T22:45:43.582Z,2.00
2023-05-18T22:48:15.767Z,2.53
2023-05-18T22:50:47.769Z,2.20
2023-05-18T22:53:16.745Z,2.83
2023-05-18T22:55:48.522Z,2.30
2023-05-18T22:58:17.647Z,2.53
2023-05-18T23:00:46.628Z,2.37
2023-05-18T23:03:19.097Z,2.40
2023-05-18T23:05:48.320Z,2.60
2023-05-18T23:08:17.227Z,2.57
2023-05-18T23:10:46.138Z,2.10
2023-05-18T23:13:16.889Z,2.07
2023-05-18T23:15:47.203Z,2.67
2023-05-18T23:18:18.497Z,2.77
2023-05-18T23:20:50.107Z,2.53
2023-05-18T23:23:27.459Z,2.50
2023-05-18T23:25:59.605Z,3.13
2023-05-18T23:28:29.413Z,2.23
2023-05-18T23:31:03.021Z,2.30
2023-05-18T23:33:34.587Z,2.50
2023-05-18T23:36:08.056Z,2.60
2023-05-18T23:38:40.350Z,2.10
2023-05-18T23:41:10.260Z,2.47
2023-05-18T23:43:43.410Z,2.77
2023-05-18T23:46:16.481Z,2.63
2023-05-18T23:48:46.617Z,2.47
2023-05-18T23:51:18.717Z,2.77
2023-05-18T23:53:58.965Z,2.60
2023-05-18T23:56:29.051Z,2.40
2023-05-18T23:59:00.937Z,2.43
